sensor_id;sensor_type;location;lat;lon;timestamp;P1;durP1;ratioP1;P2;durP2;ratioP2
80404;SDS011;69733;48.744;9.176;2023-05-21T00:01:26;15.93;;;9.23;;
80404;SDS011;69733;48.744;9.176;2023-05-21T00:03:51;13.48;;;8.57;;
80404;SDS011;69733;48.744;9.176;2023-05-21T00:06:17;13.10;;;8.65;;
80404;SDS011;69733;48.744;9.176;2023-05-21T00:08:44;14.48;;;8.93;;
80404;SDS011;69733;48.744;9.176;2023-05-21T00:11:12;14.55;;;9.15;;
80404;SDS011;69733;48.744;9.176;2023-05-21T00:13:38;16.38;;;9.60;;
80404;SDS011;69733;48.744;9.176;2023-05-21T00:16:03;14.57;;;9.67;;
80404;SDS011;69733;48.744;9.176;2023-05-21T00:18:29;15.38;;;9.27;;
80404;SDS011;69733;48.744;9.176;2023-05-21T00:20:56;14.05;;;9.25;;
80404;SDS011;69733;48.744;9.176;2023-05-21T00:23:21;17.27;;;10.25;;
80404;SDS011;69733;48.744;9.176;2023-05-21T00:25:47;16.33;;;9.10;;
80404;SDS011;69733;48.744;9.176;2023-05-21T00:28:12;16.63;;;9.77;;
80404;SDS011;69733;48.744;9.176;2023-05-21T00:30:37;15.45;;;9.85;;
80404;SDS011;69733;48.744;9.176;2023-05-21T00:33:06;16.30;;;9.82;;
80404;SDS011;69733;48.744;9.176;2023-05-21T00:35:34;16.10;;;9.65;;
80404;SDS011;69733;48.744;9.176;2023-05-21T00:38:02;16.48;;;10.23;;
80404;SDS011;69733;48.744;9.176;2023-05-21T00:40:27;16.65;;;10.15;;
80404;SDS011;69733;48.744;9.176;2023-05-21T00:42:53;15.67;;;9.93;;
80404;SDS011;69733;48.744;9.176;2023-05-21T00:45:21;14.65;;;9.00;;
80404;SDS011;69733;48.744;9.176;2023-05-21T00:47:50;16.48;;;9.77;;
80404;SDS011;69733;48.744;9.176;2023-05-21T00:50:39;17.30;;;10.70;;
80404;SDS011;69733;48.744;9.176;2023-05-21T00:53:24;15.48;;;9.60;;
80404;SDS011;69733;48.744;9.176;2023-05-21T00:55:51;16.17;;;9.98;;
80404;SDS011;69733;48.744;9.176;2023-05-21T00:58:17;17.60;;;9.82;;
80404;SDS011;69733;48.744;9.176;2023-05-21T01:00:42;16.70;;;10.25;;
80404;SDS011;69733;48.744;9.176;2023-05-21T01:03:08;16.17;;;9.43;;
80404;SDS011;69733;48.744;9.176;2023-05-21T01:05:34;16.85;;;9.73;;
80404;SDS011;69733;48.744;9.176;2023-05-21T01:08:00;16.98;;;10.32;;
80404;SDS011;69733;48.744;9.176;2023-05-21T01:10:26;16.88;;;10.05;;
80404;SDS011;69733;48.744;9.176;2023-05-21T01:12:52;16.63;;;10.52;;
80404;SDS011;69733;48.744;9.176;2023-05-21T01:15:19;13.63;;;9.75;;
80404;SDS011;69733;48.744;9.176;2023-05-21T01:17:45;15.25;;;10.38;;
80404;SDS011;69733;48.744;9.176;2023-05-21T01:20:12;16.45;;;9.75;;
80404;SDS011;69733;48.744;9.176;2023-05-21T01:22:48;15.43;;;9.48;;
80404;SDS011;69733;48.744;9.176;2023-05-21T01:25:16;15.77;;;9.65;;
80404;SDS011;69733;48.744;9.176;2023-05-21T01:27:41;14.70;;;9.50;;
80404;SDS011;69733;48.744;9.176;2023-05-21T01:30:06;20.13;;;11.60;;
80404;SDS011;69733;48.744;9.176;2023-05-21T01:32:36;15.27;;;10.10;;
80404;SDS011;69733;48.744;9.176;2023-05-21T01:35:16;16.17;;;9.90;;
80404;SDS011;69733;48.744;9.176;2023-05-21T01:37:52;16.92;;;10.18;;
80404;SDS011;69733;48.744;9.176;2023-05-21T01:40:30;17.15;;;10.65;;
80404;SDS011;69733;48.744;9.176;2023-05-21T01:43:09;16.55;;;9.85;;
80404;SDS011;69733;48.744;9.176;2023-05-21T01:45:36;17.58;;;10.02;;
80404;SDS011;69733;48.744;9.176;2023-05-21T01:48:08;19.70;;;11.07;;
80404;SDS011;69733;48.744;9.176;2023-05-21T01:50:34;17.10;;;10.63;;
80404;SDS011;69733;48.744;9.176;2023-05-21T01:53:02;16.98;;;10.63;;
80404;SDS011;69733;48.744;9.176;2023-05-21T01:55:30;17.67;;;9.88;;
80404;SDS011;69733;48.744;9.176;2023-05-21T01:57:56;17.73;;;11.80;;
80404;SDS011;69733;48.744;9.176;2023-05-21T02:00:23;19.25;;;11.18;;
80404;SDS011;69733;48.744;9.176;2023-05-21T02:02:52;20.08;;;10.75;;
80404;SDS011;69733;48.744;9.176;2023-05-21T02:05:17;18.38;;;10.88;;
80404;SDS011;69733;48.744;9.176;2023-05-21T02:07:49;19.45;;;11.25;;
80404;SDS011;69733;48.744;9.176;2023-05-21T02:10:16;18.50;;;11.45;;
80404;SDS011;69733;48.744;9.176;2023-05-21T02:12:47;16.40;;;10.77;;
80404;SDS011;69733;48.744;9.176;2023-05-21T02:15:12;16.60;;;10.73;;
80404;SDS011;69733;48.744;9.176;2023-05-21T02:17:42;16.98;;;11.10;;
80404;SDS011;69733;48.744;9.176;2023-05-21T02:20:08;17.83;;;11.18;;
80404;SDS011;69733;48.744;9.176;2023-05-21T02:22:46;17.33;;;10.85;;
80404;SDS011;69733;48.744;9.176;2023-05-21T02:25:13;17.83;;;10.93;;
80404;SDS011;69733;48.744;9.176;2023-05-21T02:27:40;17.67;;;11.18;;
80404;SDS011;69733;48.744;9.176;2023-05-21T02:30:07;19.00;;;12.43;;
80404;SDS011;69733;48.744;9.176;2023-05-21T02:32:36;18.83;;;11.65;;
80404;SDS011;69733;48.744;9.176;2023-05-21T02:35:02;19.25;;;11.18;;
80404;SDS011;69733;48.744;9.176;2023-05-21T02:37:28;18.20;;;11.25;;
80404;SDS011;69733;48.744;9.176;2023-05-21T02:42:22;16.67;;;11.10;;
80404;SDS011;69733;48.744;9.176;2023-05-21T02:44:51;18.13;;;12.07;;
80404;SDS011;69733;48.744;9.176;2023-05-21T02:47:20;17.80;;;10.77;;
80404;SDS011;69733;48.744;9.176;2023-05-21T02:49:48;19.60;;;11.63;;
80404;SDS011;69733;48.744;9.176;2023-05-21T02:52:14;20.58;;;12.05;;
80404;SDS011;69733;48.744;9.176;2023-05-21T02:54:40;20.52;;;11.77;;
80404;SDS011;69733;48.744;9.176;2023-05-21T02:57:05;18.10;;;11.63;;
80404;SDS011;69733;48.744;9.176;2023-05-21T02:59:31;18.45;;;11.20;;
80404;SDS011;69733;48.744;9.176;2023-05-21T03:01:56;17.40;;;11.80;;
80404;SDS011;69733;48.744;9.176;2023-05-21T03:04:22;20.75;;;11.63;;
80404;SDS011;69733;48.744;9.176;2023-05-21T03:06:48;20.87;;;11.97;;
80404;SDS011;69733;48.744;9.176;2023-05-21T03:09:15;18.73;;;11.43;;
80404;SDS011;69733;48.744;9.176;2023-05-21T03:11:41;20.02;;;11.48;;
80404;SDS011;69733;48.744;9.176;2023-05-21T03:14:07;19.20;;;11.38;;
80404;SDS011;69733;48.744;9.176;2023-05-21T03:16:33;20.58;;;11.65;;
80404;SDS011;69733;48.744;9.176;2023-05-21T03:19:05;21.25;;;11.25;;
80404;SDS011;69733;48.744;9.176;2023-05-21T03:21:30;19.65;;;12.05;;
80404;SDS011;69733;48.744;9.176;2023-05-21T03:23:56;17.25;;;10.65;;
80404;SDS011;69733;48.744;9.176;2023-05-21T03:26:24;21.65;;;12.18;;
80404;SDS011;69733;48.744;9.176;2023-05-21T03:28:51;21.13;;;11.88;;
80404;SDS011;69733;48.744;9.176;2023-05-21T03:31:21;19.50;;;11.57;;
80404;SDS011;69733;48.744;9.176;2023-05-21T03:33:50;19.08;;;11.65;;
80404;SDS011;69733;48.744;9.176;2023-05-21T03:36:16;18.40;;;12.30;;
80404;SDS011;69733;48.744;9.176;2023-05-21T03:38:42;21.27;;;12.57;;
80404;SDS011;69733;48.744;9.176;2023-05-21T03:41:07;18.87;;;11.23;;
80404;SDS011;69733;48.744;9.176;2023-05-21T03:43:34;20.33;;;11.65;;
80404;SDS011;69733;48.744;9.176;2023-05-21T03:45:59;24.33;;;13.85;;
80404;SDS011;69733;48.744;9.176;2023-05-21T03:48:24;20.03;;;12.43;;
80404;SDS011;69733;48.744;9.176;2023-05-21T03:50:50;22.17;;;13.60;;
80404;SDS011;69733;48.744;9.176;2023-05-21T03:53:15;22.42;;;12.85;;
80404;SDS011;69733;48.744;9.176;2023-05-21T03:55:41;16.92;;;11.32;;
80404;SDS011;69733;48.744;9.176;2023-05-21T03:58:06;19.83;;;12.55;;
80404;SDS011;69733;48.744;9.176;2023-05-21T04:00:31;21.17;;;12.48;;
80404;SDS011;69733;48.744;9.176;2023-05-21T04:02:58;22.02;;;11.45;;
80404;SDS011;69733;48.744;9.176;2023-05-21T04:05:23;21.27;;;12.00;;
80404;SDS011;69733;48.744;9.176;2023-05-21T04:07:49;20.90;;;12.43;;
80404;SDS011;69733;48.744;9.176;2023-05-21T04:10:14;22.77;;;12.30;;
80404;SDS011;69733;48.744;9.176;2023-05-21T04:12:40;20.23;;;11.45;;
80404;SDS011;69733;48.744;9.176;2023-05-21T04:15:05;19.77;;;11.75;;
80404;SDS011;69733;48.744;9.176;2023-05-21T04:17:31;20.55;;;11.40;;
80404;SDS011;69733;48.744;9.176;2023-05-21T04:19:57;20.20;;;12.10;;
80404;SDS011;69733;48.744;9.176;2023-05-21T04:22:22;20.67;;;12.15;;
80404;SDS011;69733;48.744;9.176;2023-05-21T04:24:51;19.42;;;12.20;;
80404;SDS011;69733;48.744;9.176;2023-05-21T04:27:18;18.40;;;11.20;;
80404;SDS011;69733;48.744;9.176;2023-05-21T04:29:47;21.98;;;12.02;;
80404;SDS011;69733;48.744;9.176;2023-05-21T04:32:13;23.25;;;13.07;;
80404;SDS011;69733;48.744;9.176;2023-05-21T04:34:41;22.20;;;13.00;;
80404;SDS011;69733;48.744;9.176;2023-05-21T04:37:07;18.90;;;11.38;;
80404;SDS011;69733;48.744;9.176;2023-05-21T04:39:33;20.85;;;12.05;;
80404;SDS011;69733;48.744;9.176;2023-05-21T04:41:58;20.20;;;11.38;;
80404;SDS011;69733;48.744;9.176;2023-05-21T04:44:24;20.77;;;11.52;;
80404;SDS011;69733;48.744;9.176;2023-05-21T04:46:49;20.20;;;12.10;;
80404;SDS011;69733;48.744;9.176;2023-05-21T04:49:14;21.25;;;11.38;;
80404;SDS011;69733;48.744;9.176;2023-05-21T04:51:40;20.17;;;12.63;;
80404;SDS011;69733;48.744;9.176;2023-05-21T04:54:05;18.98;;;11.82;;
80404;SDS011;69733;48.744;9.176;2023-05-21T04:56:31;17.98;;;11.32;;
80404;SDS011;69733;48.744;9.176;2023-05-21T04:58:56;18.58;;;11.38;;
80404;SDS011;69733;48.744;9.176;2023-05-21T05:01:22;18.10;;;11.27;;
80404;SDS011;69733;48.744;9.176;2023-05-21T05:03:49;18.23;;;11.07;;
80404;SDS011;69733;48.744;9.176;2023-05-21T05:06:15;18.83;;;11.82;;
80404;SDS011;69733;48.744;9.176;2023-05-21T05:08:41;21.45;;;11.95;;
80404;SDS011;69733;48.744;9.176;2023-05-21T05:11:06;20.80;;;12.13;;
80404;SDS011;69733;48.744;9.176;2023-05-21T05:13:32;18.75;;;11.50;;
80404;SDS011;69733;48.744;9.176;2023-05-21T05:15:58;20.42;;;11.93;;
80404;SDS011;69733;48.744;9.176;2023-05-21T05:18:24;19.83;;;12.15;;
80404;SDS011;69733;48.744;9.176;2023-05-21T05:20:53;18.90;;;11.52;;
80404;SDS011;69733;48.744;9.176;2023-05-21T05:23:18;18.25;;;11.00;;
80404;SDS011;69733;48.744;9.176;2023-05-21T05:25:43;17.60;;;11.07;;
80404;SDS011;69733;48.744;9.176;2023-05-21T05:28:09;20.33;;;11.13;;
80404;SDS011;69733;48.744;9.176;2023-05-21T05:30:34;18.17;;;11.13;;
80404;SDS011;69733;48.744;9.176;2023-05-21T05:33:00;20.63;;;11.18;;
80404;SDS011;69733;48.744;9.176;2023-05-21T05:35:25;17.90;;;11.40;;
80404;SDS011;69733;48.744;9.176;2023-05-21T05:37:50;16.48;;;11.18;;
80404;SDS011;69733;48.744;9.176;2023-05-21T05:40:16;18.77;;;11.23;;
80404;SDS011;69733;48.744;9.176;2023-05-21T05:42:41;16.67;;;10.63;;
80404;SDS011;69733;48.744;9.176;2023-05-21T05:45:06;18.27;;;11.43;;
80404;SDS011;69733;48.744;9.176;2023-05-21T05:47:32;19.80;;;11.25;;
80404;SDS011;69733;48.744;9.176;2023-05-21T05:49:58;17.10;;;10.35;;
80404;SDS011;69733;48.744;9.176;2023-05-21T05:52:23;20.10;;;11.10;;
80404;SDS011;69733;48.744;9.176;2023-05-21T05:54:48;15.73;;;10.67;;
80404;SDS011;69733;48.744;9.176;2023-05-21T05:57:16;15.18;;;10.40;;
80404;SDS011;69733;48.744;9.176;2023-05-21T05:59:42;17.17;;;10.93;;
80404;SDS011;69733;48.744;9.176;2023-05-21T06:02:07;15.25;;;10.15;;
80404;SDS011;69733;48.744;9.176;2023-05-21T06:04:32;13.97;;;9.20;;
80404;SDS011;69733;48.744;9.176;2023-05-21T06:06:58;14.70;;;8.77;;
80404;SDS011;69733;48.744;9.176;2023-05-21T06:09:24;14.20;;;9.25;;
80404;SDS011;69733;48.744;9.176;2023-05-21T06:11:50;13.93;;;9.07;;
80404;SDS011;69733;48.744;9.176;2023-05-21T06:14:15;12.43;;;8.43;;
80404;SDS011;69733;48.744;9.176;2023-05-21T06:16:41;12.52;;;9.02;;
80404;SDS011;69733;48.744;9.176;2023-05-21T06:19:06;14.03;;;8.53;;
80404;SDS011;69733;48.744;9.176;2023-05-21T06:21:31;12.50;;;8.48;;
80404;SDS011;69733;48.744;9.176;2023-05-21T06:23:57;12.37;;;8.40;;
80404;SDS011;69733;48.744;9.176;2023-05-21T06:26:22;11.55;;;8.50;;
80404;SDS011;69733;48.744;9.176;2023-05-21T06:28:48;12.70;;;7.88;;
80404;SDS011;69733;48.744;9.176;2023-05-21T06:31:13;12.90;;;9.05;;
80404;SDS011;69733;48.744;9.176;2023-05-21T06:33:38;13.55;;;8.13;;
80404;SDS011;69733;48.744;9.176;2023-05-21T06:36:04;12.30;;;8.48;;
80404;SDS011;69733;48.744;9.176;2023-05-21T06:38:29;12.15;;;8.20;;
80404;SDS011;69733;48.744;9.176;2023-05-21T06:40:55;12.55;;;8.35;;
80404;SDS011;69733;48.744;9.176;2023-05-21T06:43:22;10.80;;;7.80;;
80404;SDS011;69733;48.744;9.176;2023-05-21T06:45:48;10.85;;;7.95;;
80404;SDS011;69733;48.744;9.176;2023-05-21T06:48:13;10.80;;;7.60;;
80404;SDS011;69733;48.744;9.176;2023-05-21T06:50:40;11.05;;;7.38;;
80404;SDS011;69733;48.744;9.176;2023-05-21T06:53:06;9.07;;;7.05;;
80404;SDS011;69733;48.744;9.176;2023-05-21T06:55:31;10.10;;;7.35;;
80404;SDS011;69733;48.744;9.176;2023-05-21T06:57:57;10.68;;;7.38;;
80404;SDS011;69733;48.744;9.176;2023-05-21T07:00:22;12.45;;;8.18;;
80404;SDS011;69733;48.744;9.176;2023-05-21T07:02:48;11.18;;;7.57;;
80404;SDS011;69733;48.744;9.176;2023-05-21T07:05:13;9.60;;;6.97;;
80404;SDS011;69733;48.744;9.176;2023-05-21T07:07:39;10.40;;;7.35;;
80404;SDS011;69733;48.744;9.176;2023-05-21T07:10:04;13.50;;;7.68;;
80404;SDS011;69733;48.744;9.176;2023-05-21T07:12:30;10.52;;;8.18;;
80404;SDS011;69733;48.744;9.176;2023-05-21T07:14:56;10.18;;;7.85;;
80404;SDS011;69733;48.744;9.176;2023-05-21T07:17:23;10.10;;;7.70;;
80404;SDS011;69733;48.744;9.176;2023-05-21T07:19:49;12.05;;;8.02;;
80404;SDS011;69733;48.744;9.176;2023-05-21T07:22:14;11.63;;;8.45;;
80404;SDS011;69733;48.744;9.176;2023-05-21T07:24:42;10.07;;;7.55;;
80404;SDS011;69733;48.744;9.176;2023-05-21T07:27:08;10.57;;;7.78;;
80404;SDS011;69733;48.744;9.176;2023-05-21T07:29:36;11.45;;;7.70;;
80404;SDS011;69733;48.744;9.176;2023-05-21T07:34:27;11.10;;;8.57;;
80404;SDS011;69733;48.744;9.176;2023-05-21T07:36:52;11.38;;;7.65;;
80404;SDS011;69733;48.744;9.176;2023-05-21T07:39:17;10.13;;;7.22;;
80404;SDS011;69733;48.744;9.176;2023-05-21T07:41:43;11.40;;;7.43;;
80404;SDS011;69733;48.744;9.176;2023-05-21T07:44:08;10.05;;;7.95;;
80404;SDS011;69733;48.744;9.176;2023-05-21T07:46:34;8.43;;;7.13;;
80404;SDS011;69733;48.744;9.176;2023-05-21T07:48:59;9.98;;;8.10;;
80404;SDS011;69733;48.744;9.176;2023-05-21T07:51:24;9.40;;;7.95;;
80404;SDS011;69733;48.744;9.176;2023-05-21T07:53:50;9.73;;;8.27;;
80404;SDS011;69733;48.744;9.176;2023-05-21T07:56:16;10.57;;;8.27;;
80404;SDS011;69733;48.744;9.176;2023-05-21T07:58:41;10.90;;;8.68;;
80404;SDS011;69733;48.744;9.176;2023-05-21T08:01:10;10.52;;;8.60;;
80404;SDS011;69733;48.744;9.176;2023-05-21T08:03:35;10.98;;;8.63;;
80404;SDS011;69733;48.744;9.176;2023-05-21T08:06:01;11.57;;;8.95;;
80404;SDS011;69733;48.744;9.176;2023-05-21T08:08:27;9.95;;;8.93;;
80404;SDS011;69733;48.744;9.176;2023-05-21T08:10:52;10.60;;;9.50;;
80404;SDS011;69733;48.744;9.176;2023-05-21T08:13:18;9.45;;;8.02;;
80404;SDS011;69733;48.744;9.176;2023-05-21T08:15:43;10.48;;;8.90;;
80404;SDS011;69733;48.744;9.176;2023-05-21T08:18:09;10.90;;;9.38;;
80404;SDS011;69733;48.744;9.176;2023-05-21T08:20:35;10.30;;;9.13;;
80404;SDS011;69733;48.744;9.176;2023-05-21T08:23:00;10.10;;;8.85;;
80404;SDS011;69733;48.744;9.176;2023-05-21T08:25:26;10.02;;;8.70;;
80404;SDS011;69733;48.744;9.176;2023-05-21T08:27:54;11.73;;;9.43;;
80404;SDS011;69733;48.744;9.176;2023-05-21T08:30:19;11.05;;;9.23;;
80404;SDS011;69733;48.744;9.176;2023-05-21T08:32:45;10.55;;;9.40;;
80404;SDS011;69733;48.744;9.176;2023-05-21T08:35:11;10.38;;;9.27;;
80404;SDS011;69733;48.744;9.176;2023-05-21T08:37:37;9.98;;;8.77;;
80404;SDS011;69733;48.744;9.176;2023-05-21T08:40:02;9.80;;;8.80;;
80404;SDS011;69733;48.744;9.176;2023-05-21T08:45:11;10.63;;;9.35;;
80404;SDS011;69733;48.744;9.176;2023-05-21T08:47:41;10.45;;;9.45;;
80404;SDS011;69733;48.744;9.176;2023-05-21T08:50:15;11.02;;;9.25;;
80404;SDS011;69733;48.744;9.176;2023-05-21T08:52:43;12.10;;;9.50;;
80404;SDS011;69733;48.744;9.176;2023-05-21T08:55:08;12.52;;;10.50;;
80404;SDS011;69733;48.744;9.176;2023-05-21T08:57:34;11.68;;;10.48;;
80404;SDS011;69733;48.744;9.176;2023-05-21T09:00:03;11.40;;;10.20;;
80404;SDS011;69733;48.744;9.176;2023-05-21T09:02:32;10.82;;;9.73;;
80404;SDS011;69733;48.744;9.176;2023-05-21T09:04:58;9.68;;;8.68;;
80404;SDS011;69733;48.744;9.176;2023-05-21T09:07:27;10.98;;;9.38;;
80404;SDS011;69733;48.744;9.176;2023-05-21T09:09:54;9.65;;;8.63;;
80404;SDS011;69733;48.744;9.176;2023-05-21T09:12:21;11.13;;;9.50;;
80404;SDS011;69733;48.744;9.176;2023-05-21T09:14:48;11.02;;;9.77;;
80404;SDS011;69733;48.744;9.176;2023-05-21T09:17:14;10.85;;;9.15;;
80404;SDS011;69733;48.744;9.176;2023-05-21T09:22:37;10.27;;;9.15;;
80404;SDS011;69733;48.744;9.176;2023-05-21T09:25:05;10.85;;;8.50;;
80404;SDS011;69733;48.744;9.176;2023-05-21T09:27:32;10.30;;;8.82;;
80404;SDS011;69733;48.744;9.176;2023-05-21T09:29:57;12.82;;;9.63;;
80404;SDS011;69733;48.744;9.176;2023-05-21T09:32:23;10.97;;;9.70;;
80404;SDS011;69733;48.744;9.176;2023-05-21T09:34:48;11.67;;;9.93;;
80404;SDS011;69733;48.744;9.176;2023-05-21T09:37:14;11.30;;;8.87;;
80404;SDS011;69733;48.744;9.176;2023-05-21T09:39:40;11.75;;;9.45;;
80404;SDS011;69733;48.744;9.176;2023-05-21T09:42:06;12.38;;;9.45;;
80404;SDS011;69733;48.744;9.176;2023-05-21T09:44:31;11.88;;;10.27;;
80404;SDS011;69733;48.744;9.176;2023-05-21T09:46:58;11.35;;;9.60;;
80404;SDS011;69733;48.744;9.176;2023-05-21T09:49:24;10.68;;;9.40;;
80404;SDS011;69733;48.744;9.176;2023-05-21T09:51:59;11.23;;;9.70;;
80404;SDS011;69733;48.744;9.176;2023-05-21T09:54:24;10.55;;;8.88;;
80404;SDS011;69733;48.744;9.176;2023-05-21T09:56:54;10.27;;;8.32;;
80404;SDS011;69733;48.744;9.176;2023-05-21T09:59:20;10.00;;;8.52;;
80404;SDS011;69733;48.744;9.176;2023-05-21T10:01:46;9.98;;;8.48;;
80404;SDS011;69733;48.744;9.176;2023-05-21T10:04:14;10.60;;;8.63;;
80404;SDS011;69733;48.744;9.176;2023-05-21T10:06:43;9.15;;;7.60;;
80404;SDS011;69733;48.744;9.176;2023-05-21T10:09:11;10.10;;;8.73;;
80404;SDS011;69733;48.744;9.176;2023-05-21T10:11:39;9.95;;;8.02;;
80404;SDS011;69733;48.744;9.176;2023-05-21T10:14:13;9.57;;;7.80;;
80404;SDS011;69733;48.744;9.176;2023-05-21T10:16:47;9.35;;;8.18;;
80404;SDS011;69733;48.744;9.176;2023-05-21T10:19:13;10.52;;;7.93;;
80404;SDS011;69733;48.744;9.176;2023-05-21T10:21:39;9.88;;;7.63;;
80404;SDS011;69733;48.744;9.176;2023-05-21T10:24:05;9.60;;;8.02;;
80404;SDS011;69733;48.744;9.176;2023-05-21T10:26:32;9.57;;;7.70;;
80404;SDS011;69733;48.744;9.176;2023-05-21T10:28:58;10.25;;;7.97;;
80404;SDS011;69733;48.744;9.176;2023-05-21T10:31:25;9.38;;;7.95;;
80404;SDS011;69733;48.744;9.176;2023-05-21T10:33:55;10.75;;;7.72;;
80404;SDS011;69733;48.744;9.176;2023-05-21T10:36:20;9.68;;;7.68;;
80404;SDS011;69733;48.744;9.176;2023-05-21T10:38:48;10.00;;;7.40;;
80404;SDS011;69733;48.744;9.176;2023-05-21T10:41:14;9.20;;;7.93;;
80404;SDS011;69733;48.744;9.176;2023-05-21T10:58:01;8.65;;;7.30;;
80404;SDS011;69733;48.744;9.176;2023-05-21T11:00:41;8.95;;;7.47;;
80404;SDS011;69733;48.744;9.176;2023-05-21T11:03:07;9.27;;;7.13;;
80404;SDS011;69733;48.744;9.176;2023-05-21T11:05:38;8.57;;;7.03;;
80404;SDS011;69733;48.744;9.176;2023-05-21T11:08:29;9.63;;;6.85;;
80404;SDS011;69733;48.744;9.176;2023-05-21T11:10:56;10.27;;;7.88;;
80404;SDS011;69733;48.744;9.176;2023-05-21T11:13:22;9.10;;;7.20;;
80404;SDS011;69733;48.744;9.176;2023-05-21T11:18:23;10.95;;;7.47;;
80404;SDS011;69733;48.744;9.176;2023-05-21T11:21:12;10.18;;;7.22;;
80404;SDS011;69733;48.744;9.176;2023-05-21T11:23:55;10.45;;;7.38;;
80404;SDS011;69733;48.744;9.176;2023-05-21T11:26:25;11.18;;;7.50;;
80404;SDS011;69733;48.744;9.176;2023-05-21T11:31:36;10.30;;;7.68;;
80404;SDS011;69733;48.744;9.176;2023-05-21T11:34:21;9.50;;;7.32;;
80404;SDS011;69733;48.744;9.176;2023-05-21T11:40:17;10.75;;;7.35;;
80404;SDS011;69733;48.744;9.176;2023-05-21T11:42:50;11.15;;;8.23;;
80404;SDS011;69733;48.744;9.176;2023-05-21T11:45:17;10.70;;;7.30;;
80404;SDS011;69733;48.744;9.176;2023-05-21T11:47:44;8.68;;;6.85;;
80404;SDS011;69733;48.744;9.176;2023-05-21T11:50:11;10.10;;;7.28;;
80404;SDS011;69733;48.744;9.176;2023-05-21T11:52:41;10.07;;;7.28;;
80404;SDS011;69733;48.744;9.176;2023-05-21T11:55:26;9.13;;;6.90;;
80404;SDS011;69733;48.744;9.176;2023-05-21T11:57:55;9.75;;;7.53;;
80404;SDS011;69733;48.744;9.176;2023-05-21T12:00:22;10.15;;;6.85;;
80404;SDS011;69733;48.744;9.176;2023-05-21T12:02:51;8.20;;;6.53;;
80404;SDS011;69733;48.744;9.176;2023-05-21T12:05:17;9.77;;;6.65;;
80404;SDS011;69733;48.744;9.176;2023-05-21T12:07:45;8.50;;;6.55;;
80404;SDS011;69733;48.744;9.176;2023-05-21T12:10:12;8.98;;;6.57;;
80404;SDS011;69733;48.744;9.176;2023-05-21T12:12:41;9.13;;;6.95;;
80404;SDS011;69733;48.744;9.176;2023-05-21T12:15:07;8.85;;;6.50;;
80404;SDS011;69733;48.744;9.176;2023-05-21T12:17:34;9.80;;;7.13;;
80404;SDS011;69733;48.744;9.176;2023-05-21T12:19:59;8.73;;;6.50;;
80404;SDS011;69733;48.744;9.176;2023-05-21T12:22:26;7.90;;;6.03;;
80404;SDS011;69733;48.744;9.176;2023-05-21T12:24:54;10.13;;;7.00;;
80404;SDS011;69733;48.744;9.176;2023-05-21T12:27:22;9.57;;;5.80;;
80404;SDS011;69733;48.744;9.176;2023-05-21T12:29:48;8.85;;;5.75;;
80404;SDS011;69733;48.744;9.176;2023-05-21T12:32:15;6.70;;;5.20;;
80404;SDS011;69733;48.744;9.176;2023-05-21T12:37:14;8.70;;;5.50;;
80404;SDS011;69733;48.744;9.176;2023-05-21T12:39:43;7.50;;;5.63;;
80404;SDS011;69733;48.744;9.176;2023-05-21T12:42:11;8.15;;;5.90;;
80404;SDS011;69733;48.744;9.176;2023-05-21T12:44:43;8.48;;;6.03;;
80404;SDS011;69733;48.744;9.176;2023-05-21T12:47:11;7.72;;;5.60;;
80404;SDS011;69733;48.744;9.176;2023-05-21T12:49:41;7.40;;;5.10;;
80404;SDS011;69733;48.744;9.176;2023-05-21T12:52:14;6.10;;;4.90;;
80404;SDS011;69733;48.744;9.176;2023-05-21T12:54:43;6.60;;;4.57;;
80404;SDS011;69733;48.744;9.176;2023-05-21T12:59:43;7.82;;;5.10;;
80404;SDS011;69733;48.744;9.176;2023-05-21T13:02:13;6.72;;;4.82;;
80404;SDS011;69733;48.744;9.176;2023-05-21T13:05:03;6.18;;;4.43;;
80404;SDS011;69733;48.744;9.176;2023-05-21T13:07:31;6.35;;;4.72;;
80404;SDS011;69733;48.744;9.176;2023-05-21T13:10:01;7.22;;;5.13;;
80404;SDS011;69733;48.744;9.176;2023-05-21T13:12:28;6.15;;;4.90;;
80404;SDS011;69733;48.744;9.176;2023-05-21T13:14:55;5.78;;;4.55;;
80404;SDS011;69733;48.744;9.176;2023-05-21T13:17:22;5.82;;;4.82;;
80404;SDS011;69733;48.744;9.176;2023-05-21T13:22:32;6.43;;;4.63;;
80404;SDS011;69733;48.744;9.176;2023-05-21T13:25:06;6.68;;;4.72;;
80404;SDS011;69733;48.744;9.176;2023-05-21T13:27:32;7.45;;;4.63;;
80404;SDS011;69733;48.744;9.176;2023-05-21T13:29:58;6.45;;;5.10;;
80404;SDS011;69733;48.744;9.176;2023-05-21T13:32:26;6.47;;;4.75;;
80404;SDS011;69733;48.744;9.176;2023-05-21T13:34:51;6.38;;;4.40;;
80404;SDS011;69733;48.744;9.176;2023-05-21T13:37:16;7.32;;;4.97;;
80404;SDS011;69733;48.744;9.176;2023-05-21T13:39:42;6.85;;;4.30;;
80404;SDS011;69733;48.744;9.176;2023-05-21T13:42:08;6.83;;;4.87;;
80404;SDS011;69733;48.744;9.176;2023-05-21T13:44:33;7.45;;;5.18;;
80404;SDS011;69733;48.744;9.176;2023-05-21T13:47:01;6.82;;;4.72;;
80404;SDS011;69733;48.744;9.176;2023-05-21T13:49:33;6.82;;;4.88;;
80404;SDS011;69733;48.744;9.176;2023-05-21T13:51:58;6.35;;;4.68;;
80404;SDS011;69733;48.744;9.176;2023-05-21T13:54:25;7.53;;;5.03;;
80404;SDS011;69733;48.744;9.176;2023-05-21T13:56:51;7.82;;;4.82;;
80404;SDS011;69733;48.744;9.176;2023-05-21T13:59:16;5.70;;;4.60;;
80404;SDS011;69733;48.744;9.176;2023-05-21T14:01:41;7.97;;;4.95;;
80404;SDS011;69733;48.744;9.176;2023-05-21T14:04:09;7.65;;;4.90;;
80404;SDS011;69733;48.744;9.176;2023-05-21T14:06:37;8.43;;;5.18;;
80404;SDS011;69733;48.744;9.176;2023-05-21T14:09:02;5.82;;;4.45;;
80404;SDS011;69733;48.744;9.176;2023-05-21T14:11:29;7.10;;;5.35;;
80404;SDS011;69733;48.744;9.176;2023-05-21T14:13:55;6.07;;;4.70;;
80404;SDS011;69733;48.744;9.176;2023-05-21T14:16:22;7.47;;;5.03;;
80404;SDS011;69733;48.744;9.176;2023-05-21T14:18:49;6.80;;;4.90;;
80404;SDS011;69733;48.744;9.176;2023-05-21T14:21:15;6.50;;;4.72;;
80404;SDS011;69733;48.744;9.176;2023-05-21T14:23:40;6.70;;;4.90;;
80404;SDS011;69733;48.744;9.176;2023-05-21T14:26:05;6.07;;;4.72;;
80404;SDS011;69733;48.744;9.176;2023-05-21T14:28:31;6.27;;;4.63;;
80404;SDS011;69733;48.744;9.176;2023-05-21T14:30:56;6.47;;;4.90;;
80404;SDS011;69733;48.744;9.176;2023-05-21T14:33:21;8.00;;;5.75;;
80404;SDS011;69733;48.744;9.176;2023-05-21T14:35:47;8.40;;;4.55;;
80404;SDS011;69733;48.744;9.176;2023-05-21T14:38:12;6.03;;;4.40;;
80404;SDS011;69733;48.744;9.176;2023-05-21T14:40:38;6.45;;;4.97;;
80404;SDS011;69733;48.744;9.176;2023-05-21T14:43:03;8.13;;;5.07;;
80404;SDS011;69733;48.744;9.176;2023-05-21T14:45:30;7.10;;;4.68;;
80404;SDS011;69733;48.744;9.176;2023-05-21T14:47:58;6.97;;;4.57;;
80404;SDS011;69733;48.744;9.176;2023-05-21T14:50:23;7.53;;;4.80;;
80404;SDS011;69733;48.744;9.176;2023-05-21T14:52:49;6.68;;;4.53;;
80404;SDS011;69733;48.744;9.176;2023-05-21T14:55:14;7.03;;;4.60;;
80404;SDS011;69733;48.744;9.176;2023-05-21T14:57:42;7.43;;;4.63;;
80404;SDS011;69733;48.744;9.176;2023-05-21T15:00:07;5.60;;;4.22;;
80404;SDS011;69733;48.744;9.176;2023-05-21T15:02:34;7.05;;;4.38;;
80404;SDS011;69733;48.744;9.176;2023-05-21T15:04:59;5.80;;;4.35;;
80404;SDS011;69733;48.744;9.176;2023-05-21T15:07:25;6.28;;;4.10;;
80404;SDS011;69733;48.744;9.176;2023-05-21T15:09:53;5.63;;;4.50;;
80404;SDS011;69733;48.744;9.176;2023-05-21T15:12:18;6.65;;;4.13;;
80404;SDS011;69733;48.744;9.176;2023-05-21T15:14:43;7.77;;;4.60;;